Time;durP1;ratioP1;P1;durP2;ratioP2;P2;SDS_P1;SDS_P2;PMS_P1;PMS_P2;Temp;Humidity;BMP_temperature;BMP_pressure;BME280_temperature;BME280_humidity;BME280_pressure;Samples;Min_cycle;Max_cycle;Signal;HPM_P1;HPM_P2
2022/07/10 00:00:03;;;;;;;3.60;1.70;;;18.80;81.50;;;;;;5021617;28;20883;-81
2022/07/10 00:02:30;;;;;;;4.43;1.30;;;18.70;81.50;;;;;;5014718;28;20822;-82
2022/07/10 00:04:56;;;;;;;1.37;1.27;;;18.70;81.50;;;;;;5013691;28;20454;-81
2022/07/10 00:07:23;;;;;;;6.27;1.83;;;18.70;81.90;;;;;;5014778;28;20492;-81
2022/07/10 00:09:50;;;;;;;3.67;1.60;;;18.60;82.20;;;;;;5025460;28;20453;-80
2022/07/10 00:12:16;;;;;;;3.17;1.37;;;18.60;82.60;;;;;;5025932;28;20890;-83
2022/07/10 00:14:43;;;;;;;2.40;1.77;;;18.60;82.70;;;;;;5022565;28;20468;-81
2022/07/10 00:17:10;;;;;;;2.33;1.63;;;18.60;83.00;;;;;;5017856;28;20458;-81
2022/07/10 00:19:36;;;;;;;3.07;1.83;;;18.50;83.70;;;;;;5012891;28;20459;-82
2022/07/10 00:22:03;;;;;;;4.03;1.90;;;18.30;84.50;;;;;;5017880;28;20456;-82
2022/07/10 00:24:30;;;;;;;2.40;1.40;;;18.30;85.30;;;;;;5009418;28;20822;-81
2022/07/10 00:26:58;;;;;;;5.03;1.90;;;18.30;85.90;;;;;;5037372;28;20458;-82
2022/07/10 00:29:25;;;;;;;7.13;2.00;;;18.20;86.50;;;;;;5040419;28;20427;-83
2022/07/10 00:31:51;;;;;;;3.00;1.80;;;18.10;87.10;;;;;;5039484;28;20479;-82
2022/07/10 00:34:18;;;;;;;3.70;1.80;;;18.10;87.40;;;;;;5027107;28;20451;-82
2022/07/10 00:36:45;;;;;;;2.80;2.27;;;18.20;87.90;;;;;;5015614;28;20479;-81
2022/07/10 00:39:11;;;;;;;4.43;1.87;;;18.10;88.90;;;;;;5029344;28;20446;-80
2022/07/10 00:41:38;;;;;;;3.57;1.87;;;18.20;88.40;;;;;;5031505;28;20468;-82
2022/07/10 00:44:04;;;;;;;2.90;1.80;;;18.10;88.60;;;;;;5034836;28;20494;-82
2022/07/10 00:46:31;;;;;;;3.17;1.60;;;18.10;89.00;;;;;;5044048;28;20464;-83
2022/07/10 00:48:59;;;;;;;3.33;1.50;;;18.10;89.40;;;;;;5037563;28;20430;-82
2022/07/10 00:51:30;;;;;;;2.93;1.63;;;18.00;89.70;;;;;;5039131;28;20479;-82
2022/07/10 00:53:58;;;;;;;3.47;2.00;;;17.90;90.10;;;;;;5026138;28;20449;-80
2022/07/10 00:56:26;;;;;;;5.63;1.80;;;17.80;90.30;;;;;;5029192;28;20447;-82
2022/07/10 00:58:54;;;;;;;3.93;1.50;;;17.70;90.60;;;;;;5041570;28;20457;-83
2022/07/10 01:01:24;;;;;;;4.10;1.80;;;17.70;90.80;;;;;;5048065;28;20498;-82
2022/07/10 01:03:51;;;;;;;6.80;2.10;;;17.70;91.00;;;;;;5028591;28;20482;-82
2022/07/10 01:06:18;;;;;;;2.50;1.57;;;17.70;91.20;;;;;;5015933;28;20534;-83
2022/07/10 01:08:45;;;;;;;4.67;1.90;;;17.70;91.20;;;;;;5020745;28;20481;-82
2022/07/10 01:11:14;;;;;;;4.03;2.13;;;17.70;91.20;;;;;;5013417;28;20486;-81
2022/07/10 01:13:43;;;;;;;7.30;1.90;;;17.70;91.40;;;;;;5017055;28;20450;-79
2022/07/10 01:16:11;;;;;;;2.73;1.37;;;17.70;91.30;;;;;;5016318;28;20450;-80
2022/07/10 01:18:37;;;;;;;3.60;1.53;;;17.60;91.50;;;;;;5018747;28;20469;-80
2022/07/10 01:21:05;;;;;;;4.77;1.80;;;17.60;91.70;;;;;;5030570;28;21019;-80
2022/07/10 01:23:31;;;;;;;2.70;1.70;;;17.70;91.60;;;;;;5019370;28;20981;-81
2022/07/10 01:25:58;;;;;;;3.87;1.50;;;17.70;91.60;;;;;;5017429;28;20472;-82
2022/07/10 01:28:26;;;;;;;3.00;1.83;;;17.70;91.60;;;;;;5010053;28;20493;-81
2022/07/10 01:30:55;;;;;;;4.73;1.80;;;17.60;91.80;;;;;;5016372;28;20480;-81
2022/07/10 01:33:22;;;;;;;4.40;2.00;;;17.60;91.80;;;;;;5011596;28;20975;-82
2022/07/10 01:35:49;;;;;;;2.43;1.40;;;17.60;91.80;;;;;;5008152;28;20465;-81
2022/07/10 01:38:15;;;;;;;2.53;1.40;;;17.60;91.80;;;;;;5005714;28;20544;-81
2022/07/10 01:40:42;;;;;;;3.53;1.80;;;17.60;92.00;;;;;;5005569;28;20468;-81
2022/07/10 01:43:08;;;;;;;2.17;1.80;;;17.60;91.80;;;;;;5006064;28;20458;-82
2022/07/10 01:45:35;;;;;;;3.57;1.77;;;17.50;91.90;;;;;;5005732;28;20517;-82
2022/07/10 01:48:02;;;;;;;4.03;2.07;;;17.50;91.90;;;;;;5007830;28;20554;-82
2022/07/10 01:50:28;;;;;;;2.00;1.80;;;17.40;92.10;;;;;;5006851;28;20472;-81
2022/07/10 01:52:55;;;;;;;5.80;1.90;;;17.40;92.30;;;;;;5006634;28;20831;-82
2022/07/10 01:55:22;;;;;;;2.27;1.77;;;17.40;92.40;;;;;;5014622;28;20493;-81
2022/07/10 01:57:48;;;;;;;4.03;1.63;;;17.30;92.50;;;;;;5007668;28;20524;-81
2022/07/10 02:00:15;;;;;;;2.77;1.60;;;17.30;92.60;;;;;;5009773;28;21392;-82
2022/07/10 02:04:40;;;;;;;3.20;1.60;;;17.20;92.90;;;;;;5022230;28;20473;-81
2022/07/10 02:05:29;;;;;;;3.83;1.40;;;17.10;93.10;;;;;;5012113;28;20455;-81
2022/07/10 02:07:56;;;;;;;3.03;1.83;;;17.10;93.20;;;;;;5008405;28;20470;-82
2022/07/10 02:10:23;;;;;;;4.50;1.77;;;17.10;93.20;;;;;;5011359;28;20463;-82
2022/07/10 02:12:49;;;;;;;3.67;1.50;;;17.20;93.10;;;;;;5008280;28;20484;-82
2022/07/10 02:15:16;;;;;;;2.03;1.63;;;17.20;93.10;;;;;;5010399;28;20967;-82
2022/07/10 02:17:43;;;;;;;15.77;2.67;;;17.20;93.10;;;;;;5006120;28;20487;-82
2022/07/10 02:20:10;;;;;;;1.70;1.50;;;17.20;93.10;;;;;;5024325;28;20457;-82
2022/07/10 02:22:37;;;;;;;3.23;1.57;;;17.30;93.10;;;;;;5019480;28;20839;-81
2022/07/10 02:25:04;;;;;;;4.20;1.03;;;17.30;93.10;;;;;;5012279;28;20454;-82
2022/07/10 02:27:31;;;;;;;2.43;1.30;;;17.30;93.00;;;;;;5015703;28;20474;-82
2022/07/10 02:29:58;;;;;;;2.23;1.47;;;17.30;93.00;;;;;;5017654;28;20453;-82
2022/07/10 02:32:25;;;;;;;2.80;1.97;;;17.40;93.00;;;;;;5012313;28;20999;-82
2022/07/10 02:34:52;;;;;;;1.93;1.53;;;17.40;92.90;;;;;;5012205;28;20454;-81
2022/07/10 02:37:19;;;;;;;3.70;1.67;;;17.40;93.00;;;;;;5014732;28;20474;-82
2022/07/10 02:39:46;;;;;;;5.27;1.70;;;17.30;93.00;;;;;;5016814;28;20457;-81
2022/07/10 02:42:13;;;;;;;8.47;1.63;;;17.30;93.10;;;;;;5006046;28;20471;-81
2022/07/10 02:44:39;;;;;;;2.97;1.27;;;17.30;93.10;;;;;;5034328;28;20445;-82
2022/07/10 02:47:06;;;;;;;3.40;1.57;;;17.30;93.20;;;;;;5017963;28;20474;-81
2022/07/10 02:49:33;;;;;;;4.20;2.10;;;17.30;93.40;;;;;;5005900;28;20469;-82
2022/07/10 02:52:00;;;;;;;5.53;1.40;;;17.30;93.40;;;;;;5006117;28;20482;-81
2022/07/10 02:54:26;;;;;;;1.97;1.50;;;17.20;93.40;;;;;;5007832;28;20469;-83
2022/07/10 02:56:53;;;;;;;2.33;1.13;;;17.10;93.60;;;;;;5008594;28;20478;-82
2022/07/10 02:59:20;;;;;;;7.10;1.43;;;17.10;93.80;;;;;;5021047;28;20458;-81
2022/07/10 03:01:47;;;;;;;3.60;1.67;;;17.10;93.90;;;;;;5036590;28;20559;-83
2022/07/10 03:04:14;;;;;;;4.07;1.47;;;17.10;94.00;;;;;;5020519;28;20468;-81
2022/07/10 03:06:40;;;;;;;4.03;2.00;;;17.10;94.10;;;;;;5024025;28;20477;-82
2022/07/10 03:09:07;;;;;;;2.50;1.50;;;17.00;94.10;;;;;;5017840;28;20469;-83
2022/07/10 03:11:34;;;;;;;2.20;1.30;;;17.00;94.10;;;;;;5011679;28;21017;-83
2022/07/10 03:14:00;;;;;;;5.50;1.50;;;17.00;94.10;;;;;;5016151;28;20458;-83
2022/07/10 03:16:27;;;;;;;2.83;1.60;;;17.10;94.10;;;;;;5009137;28;21039;-81
2022/07/10 03:18:54;;;;;;;2.83;1.47;;;17.10;94.10;;;;;;5003012;28;20811;-81
2022/07/10 03:21:21;;;;;;;4.93;1.70;;;17.10;94.10;;;;;;5019458;28;20467;-81
2022/07/10 03:23:48;;;;;;;1.63;1.50;;;17.10;94.20;;;;;;5025332;28;20461;-83
2022/07/10 03:26:14;;;;;;;3.23;1.23;;;17.10;94.20;;;;;;5053837;28;20458;-82
2022/07/10 03:28:41;;;;;;;4.60;1.40;;;17.10;94.20;;;;;;5045916;28;20465;-83
2022/07/10 03:31:08;;;;;;;1.80;1.50;;;17.10;94.10;;;;;;5049433;28;20437;-83
2022/07/10 03:33:35;;;;;;;5.67;1.93;;;17.10;94.20;;;;;;5047773;28;20457;-82
2022/07/10 03:36:01;;;;;;;2.73;1.53;;;17.00;94.30;;;;;;5034469;28;20460;-82
2022/07/10 03:38:28;;;;;;;3.63;1.60;;;17.00;94.40;;;;;;5028112;28;20473;-83
2022/07/10 03:40:55;;;;;;;4.37;1.50;;;17.00;94.40;;;;;;5015082;28;20466;-83
2022/07/10 03:43:21;;;;;;;2.40;1.50;;;17.00;94.50;;;;;;5012513;28;20449;-82
2022/07/10 03:45:48;;;;;;;3.70;1.70;;;17.00;94.60;;;;;;5012950;28;20465;-83
2022/07/10 03:48:15;;;;;;;5.67;2.30;;;17.00;94.60;;;;;;5010536;28;20470;-81
2022/07/10 03:50:42;;;;;;;2.20;1.23;;;17.00;94.60;;;;;;5011357;28;20512;-81
2022/07/10 03:53:09;;;;;;;1.80;1.10;;;17.00;94.60;;;;;;5009617;28;20507;-82
2022/07/10 03:55:35;;;;;;;5.40;1.33;;;17.00;94.50;;;;;;5016956;28;20463;-81
2022/07/10 03:58:02;;;;;;;4.33;2.30;;;17.10;94.50;;;;;;5008182;28;21016;-82
2022/07/10 04:00:34;;;;;;;2.13;1.30;;;17.10;94.30;;;;;;5011565;28;20569;-81
2022/07/10 04:03:05;;;;;;;2.73;1.40;;;17.10;94.30;;;;;;5015072;28;20926;-82
2022/07/10 04:05:32;;;;;;;4.27;1.30;;;17.20;94.30;;;;;;5027911;28;20457;-82
2022/07/10 04:08:00;;;;;;;2.13;1.20;;;17.10;94.50;;;;;;5009963;28;20496;-82
2022/07/10 04:10:29;;;;;;;3.90;1.50;;;17.10;94.20;;;;;;5012830;28;20946;-81
2022/07/10 04:12:56;;;;;;;1.63;1.10;;;17.00;94.30;;;;;;5011012;28;20493;-82
2022/07/10 04:15:24;;;;;;;2.10;1.50;;;17.00;94.40;;;;;;5013343;28;20489;-81
2022/07/10 04:17:51;;;;;;;2.83;1.50;;;17.00;94.40;;;;;;5010669;28;20477;-82
2022/07/10 04:20:18;;;;;;;2.57;1.70;;;17.00;94.30;;;;;;5011575;28;21259;-81
2022/07/10 04:22:45;;;;;;;3.03;1.33;;;17.00;94.40;;;;;;5011140;28;20458;-81
2022/07/10 04:25:12;;;;;;;5.90;1.43;;;17.00;94.40;;;;;;5028347;28;20461;-80
2022/07/10 04:27:39;;;;;;;3.00;1.47;;;17.10;94.40;;;;;;5028986;28;20484;-81
2022/07/10 04:30:07;;;;;;;4.50;1.60;;;17.10;94.40;;;;;;5028871;28;20454;-82
2022/07/10 04:32:33;;;;;;;2.67;1.43;;;17.10;94.20;;;;;;5020936;28;20485;-80
2022/07/10 04:35:03;;;;;;;2.07;1.87;;;17.10;94.30;;;;;;5013068;28;20456;-83
2022/07/10 04:37:30;;;;;;;2.83;1.43;;;17.10;94.30;;;;;;5016095;28;20466;-83
2022/07/10 04:39:56;;;;;;;2.40;1.43;;;17.20;94.10;;;;;;5028618;28;20453;-82
2022/07/10 04:42:25;;;;;;;2.60;1.57;;;17.10;94.10;;;;;;5035355;28;20442;-82
2022/07/10 04:44:52;;;;;;;4.60;1.90;;;17.10;94.10;;;;;;5016817;28;20465;-81
2022/07/10 04:47:19;;;;;;;3.03;1.40;;;17.00;94.10;;;;;;5009063;28;20553;-82
2022/07/10 04:49:46;;;;;;;3.93;1.60;;;17.00;94.20;;;;;;5008470;28;21172;-82
2022/07/10 04:52:12;;;;;;;6.20;1.80;;;17.00;94.30;;;;;;5014750;28;20485;-82
2022/07/10 04:54:39;;;;;;;6.60;1.80;;;17.10;94.30;;;;;;5008086;28;20454;-82
2022/07/10 04:57:06;;;;;;;2.27;1.60;;;17.10;94.30;;;;;;5011350;28;20477;-82
2022/07/10 04:59:33;;;;;;;3.30;1.30;;;17.10;94.30;;;;;;5019946;28;20461;-82
2022/07/10 05:02:00;;;;;;;11.00;2.63;;;17.00;94.30;;;;;;5012483;28;20454;-82
2022/07/10 05:04:26;;;;;;;4.67;1.87;;;17.10;94.30;;;;;;5020855;28;20892;-82
2022/07/10 05:06:53;;;;;;;4.50;2.13;;;17.20;94.30;;;;;;5024332;28;20473;-83
2022/07/10 05:09:20;;;;;;;3.40;1.47;;;17.30;94.20;;;;;;5007204;28;20455;-82
2022/07/10 05:11:47;;;;;;;4.63;1.70;;;17.30;94.10;;;;;;5014471;28;21025;-80
2022/07/10 05:14:13;;;;;;;3.23;1.70;;;17.30;94.00;;;;;;5023270;28;20452;-82
2022/07/10 05:16:40;;;;;;;5.70;2.60;;;17.50;94.00;;;;;;5017070;28;20536;-80
2022/07/10 05:19:07;;;;;;;1.90;1.50;;;17.40;93.90;;;;;;5018123;28;20493;-82
2022/07/10 05:21:34;;;;;;;5.93;1.90;;;17.50;94.10;;;;;;5017329;28;20457;-82
2022/07/10 05:24:01;;;;;;;4.20;1.90;;;17.50;94.00;;;;;;5027008;28;20808;-83
2022/07/10 05:26:27;;;;;;;2.70;1.67;;;17.60;94.00;;;;;;5023507;28;20463;-82
2022/07/10 05:28:54;;;;;;;3.37;1.70;;;17.60;93.80;;;;;;5022595;28;20956;-83
2022/07/10 05:31:20;;;;;;;3.10;1.87;;;17.50;93.90;;;;;;5024035;28;20454;-82
2022/07/10 05:33:47;;;;;;;3.90;1.80;;;17.60;94.00;;;;;;5016870;28;20488;-82
2022/07/10 05:36:14;;;;;;;6.67;1.93;;;17.60;94.00;;;;;;5027071;28;20446;-83
2022/07/10 05:38:41;;;;;;;3.67;1.80;;;17.60;94.00;;;;;;5020859;28;20531;-83
2022/07/10 05:41:08;;;;;;;2.40;1.63;;;17.60;94.10;;;;;;5017799;28;20450;-82
2022/07/10 05:43:35;;;;;;;3.27;2.07;;;17.60;94.10;;;;;;5014698;28;20454;-82
2022/07/10 05:46:02;;;;;;;2.33;1.83;;;17.50;94.20;;;;;;5019851;28;20542;-82
2022/07/10 05:48:31;;;;;;;3.67;2.00;;;17.50;94.20;;;;;;5015668;28;20476;-81
2022/07/10 05:50:58;;;;;;;4.80;2.83;;;17.50;94.30;;;;;;5018291;28;20457;-83
2022/07/10 05:53:44;;;;;;;8.43;1.83;;;17.60;94.20;;;;;;5010749;28;20465;-82
2022/07/10 05:56:11;;;;;;;5.50;1.87;;;17.60;94.00;;;;;;5020106;28;20465;-83
2022/07/10 05:58:38;;;;;;;2.20;1.33;;;17.60;93.70;;;;;;5025724;28;20484;-82
2022/07/10 06:01:05;;;;;;;4.77;2.00;;;17.70;93.90;;;;;;5023670;28;20467;-82
2022/07/10 06:03:31;;;;;;;3.13;1.83;;;17.70;93.50;;;;;;5035836;28;20461;-83
2022/07/10 06:05:59;;;;;;;6.23;1.90;;;17.60;93.40;;;;;;5037376;28;20812;-82
2022/07/10 06:08:26;;;;;;;2.83;1.60;;;17.90;93.00;;;;;;5008379;28;20469;-81
2022/07/10 06:10:52;;;;;;;5.73;1.80;;;17.90;92.30;;;;;;5012948;28;20474;-81
2022/07/10 06:13:19;;;;;;;4.37;1.70;;;17.80;92.30;;;;;;5017185;28;20487;-83
2022/07/10 06:15:47;;;;;;;5.17;1.80;;;17.90;92.20;;;;;;5010378;28;20888;-83
2022/07/10 06:18:13;;;;;;;5.00;1.30;;;18.00;91.70;;;;;;5015716;28;20485;-82
2022/07/10 06:20:40;;;;;;;3.63;1.47;;;18.10;91.50;;;;;;5015035;28;20477;-82
2022/07/10 06:23:07;;;;;;;4.53;1.70;;;18.20;90.90;;;;;;5014529;28;20454;-83
2022/07/10 06:25:33;;;;;;;3.83;1.80;;;18.10;90.70;;;;;;5022911;28;20458;-81
2022/07/10 06:28:00;;;;;;;4.27;1.80;;;18.00;91.00;;;;;;5016651;28;21008;-83
2022/07/10 06:30:27;;;;;;;3.00;1.67;;;18.10;91.30;;;;;;5018011;28;20489;-82
2022/07/10 06:32:54;;;;;;;6.53;2.40;;;18.30;91.20;;;;;;5011346;28;20485;-83
2022/07/10 06:35:21;;;;;;;5.53;1.73;;;18.60;90.40;;;;;;5023998;28;20459;-82
2022/07/10 06:37:48;;;;;;;4.93;2.27;;;18.90;87.70;;;;;;5018635;28;20476;-83
2022/07/10 06:40:16;;;;;;;7.73;2.70;;;18.90;87.40;;;;;;5016923;28;20469;-82
2022/07/10 06:42:43;;;;;;;6.37;2.70;;;18.80;88.00;;;;;;5017375;28;20466;-83
2022/07/10 06:45:10;;;;;;;5.27;2.17;;;19.00;87.40;;;;;;5016610;28;20454;-83
2022/07/10 06:47:55;;;;;;;3.23;2.33;;;19.00;87.70;;;;;;5011435;28;20475;-82
2022/07/10 06:50:25;;;;;;;4.00;2.47;;;19.10;87.70;;;;;;5019466;28;20462;-81
2022/07/10 06:52:53;;;;;;;6.10;2.20;;;18.80;87.90;;;;;;5024139;28;20493;-83
2022/07/10 06:55:20;;;;;;;2.60;1.83;;;18.80;88.50;;;;;;5023090;28;20829;-83
2022/07/10 06:57:47;;;;;;;5.80;2.47;;;18.90;89.00;;;;;;5019829;28;21078;-83
2022/07/10 07:00:15;;;;;;;2.83;2.00;;;18.90;88.90;;;;;;5025808;28;20430;-82
2022/07/10 07:02:42;;;;;;;5.30;2.17;;;18.80;88.90;;;;;;5027426;28;20481;-81
2022/07/10 07:05:09;;;;;;;5.40;2.00;;;18.90;88.80;;;;;;5042232;28;20449;-81
2022/07/10 07:07:37;;;;;;;2.50;1.60;;;19.00;88.70;;;;;;5027939;28;20491;-82
2022/07/10 07:10:05;;;;;;;5.20;1.97;;;18.90;89.10;;;;;;5018793;28;20487;-81
2022/07/10 07:12:31;;;;;;;3.07;1.43;;;18.90;90.00;;;;;;5023087;28;20552;-81
2022/07/10 07:14:58;;;;;;;6.10;2.57;;;18.90;89.60;;;;;;5027622;28;20479;-82
2022/07/10 07:17:33;;;;;;;5.30;2.37;;;18.80;90.10;;;;;;5029663;28;20478;-82
2022/07/10 07:25:34;;;;;;;5.53;3.07;;;18.60;90.50;;;;;;5012826;28;20859;-82
2022/07/10 07:28:01;;;;;;;4.00;2.30;;;18.50;90.20;;;;;;5040273;28;20557;-82
2022/07/10 07:30:28;;;;;;;3.47;1.87;;;18.50;90.10;;;;;;5027455;28;20471;-82
2022/07/10 07:32:55;;;;;;;5.17;1.80;;;18.70;90.10;;;;;;5024991;28;20469;-82
2022/07/10 07:35:22;;;;;;;5.20;3.00;;;18.90;89.90;;;;;;5026041;28;20447;-81
2022/07/10 07:37:50;;;;;;;2.77;2.10;;;18.80;89.40;;;;;;5025109;28;20469;-80
2022/07/10 07:40:23;;;;;;;2.40;1.70;;;18.60;89.30;;;;;;5017824;28;20465;-82
2022/07/10 07:42:50;;;;;;;3.37;2.30;;;18.50;89.00;;;;;;5016978;28;20462;-82
2022/07/10 07:45:17;;;;;;;2.90;2.37;;;18.40;89.10;;;;;;5018626;28;20550;-83
2022/07/10 07:47:48;;;;;;;3.47;2.30;;;18.70;88.60;;;;;;5009570;28;20485;-83
2022/07/10 07:50:21;;;;;;;4.10;2.93;;;18.60;87.70;;;;;;5018939;28;20456;-83
2022/07/10 07:52:48;;;;;;;2.50;2.30;;;18.60;87.90;;;;;;5012830;28;20483;-82
2022/07/10 07:55:17;;;;;;;3.43;2.83;;;19.00;87.30;;;;;;5019177;28;20955;-82
2022/07/10 07:57:45;;;;;;;2.80;1.97;;;18.90;87.70;;;;;;5017683;28;20473;-82
2022/07/10 08:00:13;;;;;;;4.37;2.30;;;18.80;89.30;;;;;;5018830;28;20912;-81
2022/07/10 08:02:40;;;;;;;5.83;2.80;;;18.60;90.60;;;;;;5018694;28;20566;-82
2022/07/10 08:05:09;;;;;;;4.77;2.93;;;18.30;91.00;;;;;;5020454;28;20486;-82
2022/07/10 08:07:37;;;;;;;3.30;2.70;;;18.40;91.50;;;;;;5025382;28;20834;-82
2022/07/10 08:10:05;;;;;;;6.30;2.47;;;18.50;91.40;;;;;;5029653;28;21036;-82
2022/07/10 08:12:32;;;;;;;2.50;1.87;;;18.60;91.40;;;;;;5025075;28;20462;-82
2022/07/10 08:14:59;;;;;;;3.23;2.07;;;18.80;91.40;;;;;;5016278;28;20450;-83
2022/07/10 08:17:26;;;;;;;2.90;2.20;;;19.10;91.10;;;;;;5012977;28;20524;-82
2022/07/10 08:19:53;;;;;;;2.23;1.93;;;19.10;90.50;;;;;;5010505;28;20457;-83
2022/07/10 08:22:20;;;;;;;6.10;2.00;;;19.10;90.70;;;;;;5018906;28;21062;-80
2022/07/10 08:24:47;;;;;;;5.37;2.03;;;19.00;90.80;;;;;;5028127;28;20460;-82
2022/07/10 08:27:14;;;;;;;6.93;2.60;;;18.80;91.10;;;;;;5014929;28;20469;-82
2022/07/10 08:29:41;;;;;;;3.33;2.10;;;18.70;91.60;;;;;;5013483;28;20826;-83
2022/07/10 08:32:09;;;;;;;4.33;2.40;;;18.70;91.60;;;;;;5023755;28;20533;-81
2022/07/10 08:34:37;;;;;;;4.77;2.57;;;18.70;91.50;;;;;;5015340;28;20497;-82
2022/07/10 08:37:04;;;;;;;4.43;2.63;;;18.90;91.50;;;;;;5021447;28;20461;-82
2022/07/10 08:39:31;;;;;;;4.50;2.37;;;18.90;91.30;;;;;;5017225;28;20449;-82
2022/07/10 08:41:58;;;;;;;2.73;2.33;;;19.10;91.40;;;;;;5017492;28;20434;-81
2022/07/10 08:44:26;;;;;;;2.33;2.23;;;19.20;91.10;;;;;;5007944;28;20454;-83
2022/07/10 08:46:53;;;;;;;4.20;2.10;;;19.20;91.00;;;;;;5018246;28;20600;-82
2022/07/10 08:49:23;;;;;;;3.43;2.37;;;19.20;90.80;;;;;;5018511;28;20455;-80
2022/07/10 08:51:56;;;;;;;4.07;2.87;;;19.20;90.80;;;;;;5012213;28;20465;-82
2022/07/10 08:54:24;;;;;;;6.13;3.10;;;19.30;90.90;;;;;;5011887;28;20490;-80
2022/07/10 08:56:52;;;;;;;3.73;2.30;;;19.50;90.20;;;;;;5012917;28;20964;-82
2022/07/10 08:59:20;;;;;;;3.83;2.63;;;19.70;90.20;;;;;;5014627;28;20446;-81
2022/07/10 09:01:48;;;;;;;3.47;3.17;;;19.60;89.20;;;;;;5028195;28;21014;-82
2022/07/10 09:04:20;;;;;;;3.43;2.83;;;19.60;89.60;;;;;;5019016;28;20462;-82
2022/07/10 09:06:47;;;;;;;6.00;3.50;;;19.80;88.50;;;;;;5023088;28;20491;-82
2022/07/10 09:09:14;;;;;;;3.07;2.80;;;19.50;88.80;;;;;;5025325;28;20465;-81
2022/07/10 09:11:42;;;;;;;4.20;3.80;;;19.40;89.60;;;;;;5028431;28;20459;-82
2022/07/10 09:14:15;;;;;;;6.70;3.40;;;19.30;90.00;;;;;;5016868;28;20991;-81
2022/07/10 09:16:58;;;;;;;3.97;3.47;;;19.60;90.00;;;;;;5018271;28;20469;-82
2022/07/10 09:19:27;;;;;;;5.17;3.60;;;19.90;89.40;;;;;;5025991;28;20978;-82
2022/07/10 09:22:05;;;;;;;5.43;3.33;;;20.40;87.00;;;;;;5019040;28;20789;-81
2022/07/10 09:24:40;;;;;;;5.13;2.87;;;20.30;86.80;;;;;;5012665;28;20462;-82
2022/07/10 09:27:08;;;;;;;4.53;3.00;;;20.20;87.00;;;;;;5034252;28;20489;-82
2022/07/10 09:29:48;;;;;;;4.40;3.43;;;20.10;87.40;;;;;;5041936;28;20478;-81
2022/07/10 09:32:17;;;;;;;3.80;2.83;;;20.00;87.70;;;;;;5020809;28;20457;-81
2022/07/10 09:34:49;;;;;;;3.83;2.87;;;19.90;87.80;;;;;;5011528;28;20471;-82
2022/07/10 09:37:23;;;;;;;5.13;2.60;;;19.80;88.30;;;;;;5034582;28;20541;-81
2022/07/10 09:39:57;;;;;;;4.53;4.03;;;19.90;88.80;;;;;;5044505;28;20458;-82
2022/07/10 09:42:36;;;;;;;3.30;2.50;;;20.10;88.10;;;;;;5019356;28;20530;-80
2022/07/10 09:45:12;;;;;;;3.83;2.57;;;19.80;88.30;;;;;;5021482;28;20482;-82
2022/07/10 09:47:40;;;;;;;3.30;2.37;;;19.80;89.40;;;;;;5016034;28;20906;-82
2022/07/10 09:50:31;;;;;;;4.80;1.90;;;19.80;89.00;;;;;;5021749;28;20489;-82
2022/07/10 09:53:03;;;;;;;3.60;2.10;;;20.20;89.10;;;;;;5022474;28;20556;-83
2022/07/10 09:55:34;;;;;;;8.80;2.97;;;19.90;88.70;;;;;;5025126;28;20426;-82
2022/07/10 09:58:03;;;;;;;4.67;1.63;;;19.90;88.80;;;;;;5019866;28;20469;-82
2022/07/10 10:00:31;;;;;;;3.10;1.80;;;20.10;88.90;;;;;;5020016;28;20445;-82
2022/07/10 10:03:00;;;;;;;3.90;1.40;;;20.10;88.30;;;;;;5026233;28;20506;-83
2022/07/10 10:05:38;;;;;;;1.57;1.40;;;19.90;88.70;;;;;;5023330;28;20470;-82
2022/07/10 10:08:23;;;;;;;2.47;1.73;;;20.00;89.20;;;;;;5023655;28;20486;-81
2022/07/10 10:10:51;;;;;;;3.93;1.87;;;20.40;88.30;;;;;;5019766;28;20466;-82
2022/07/10 10:13:22;;;;;;;5.20;2.07;;;20.10;88.50;;;;;;5018422;28;20496;-82
2022/07/10 10:15:53;;;;;;;2.27;2.07;;;19.80;90.00;;;;;;5013599;28;20520;-82
2022/07/10 10:18:22;;;;;;;3.87;2.50;;;19.60;90.50;;;;;;5015524;28;20478;-82
2022/07/10 10:20:51;;;;;;;3.57;2.97;;;19.40;91.00;;;;;;5023640;28;20480;-82
2022/07/10 10:23:22;;;;;;;2.80;2.50;;;19.60;91.50;;;;;;5022560;28;20462;-82
2022/07/10 10:25:57;;;;;;;3.30;2.70;;;19.60;91.30;;;;;;5013965;28;20502;-82
2022/07/10 10:28:25;;;;;;;2.27;2.03;;;19.60;91.20;;;;;;5015980;28;20484;-83
2022/07/10 10:30:55;;;;;;;2.00;1.87;;;19.30;91.70;;;;;;5023143;28;20457;-83
2022/07/10 10:33:31;;;;;;;2.80;2.10;;;19.30;92.00;;;;;;5012092;28;20485;-82
2022/07/10 10:36:07;;;;;;;5.30;1.97;;;19.20;92.20;;;;;;5017939;28;20529;-83
2022/07/10 10:38:49;;;;;;;1.73;1.43;;;19.30;92.40;;;;;;5014220;28;20477;-83
2022/07/10 10:41:36;;;;;;;3.23;1.53;;;19.40;92.60;;;;;;5019092;28;20470;-82
2022/07/10 10:44:10;;;;;;;5.47;1.80;;;19.40;92.20;;;;;;5020403;28;20821;-83
2022/07/10 10:46:49;;;;;;;3.07;1.57;;;19.40;92.60;;;;;;5027631;28;20480;-83
2022/07/10 10:49:18;;;;;;;6.30;1.50;;;19.60;92.60;;;;;;5027688;28;20454;-83
2022/07/10 10:51:58;;;;;;;5.73;2.10;;;19.80;92.10;;;;;;5016651;28;20529;-83
2022/07/10 10:54:26;;;;;;;1.83;1.63;;;20.10;91.70;;;;;;5026014;28;20564;-82
2022/07/10 10:57:16;;;;;;;3.60;2.30;;;20.40;91.00;;;;;;5006849;28;20541;-83
2022/07/10 10:59:53;;;;;;;4.87;3.07;;;20.50;90.60;;;;;;5011981;28;20465;-83
2022/07/10 11:02:28;;;;;;;2.63;1.57;;;20.40;90.50;;;;;;5019670;28;20454;-83
2022/07/10 11:05:10;;;;;;;2.40;2.10;;;20.30;90.70;;;;;;5021736;28;20458;-83
2022/07/10 11:07:58;;;;;;;6.20;2.43;;;20.10;91.00;;;;;;5014747;28;21085;-83
2022/07/10 11:10:37;;;;;;;4.33;2.30;;;20.20;91.00;;;;;;5014520;28;20536;-82
2022/07/10 11:13:08;;;;;;;3.47;1.80;;;20.20;90.90;;;;;;5012933;28;20473;-82
2022/07/10 11:15:41;;;;;;;3.70;1.80;;;20.20;91.00;;;;;;5010441;28;20489;-83
2022/07/10 11:18:21;;;;;;;2.60;1.57;;;20.20;91.00;;;;;;5010270;28;20495;-82
2022/07/10 11:20:50;;;;;;;3.47;2.03;;;20.40;91.00;;;;;;5007243;28;20461;-82
2022/07/10 11:23:56;;;;;;;3.90;2.00;;;20.80;90.50;;;;;;5021276;28;20461;-83
2022/07/10 11:26:32;;;;;;;5.53;2.23;;;20.70;90.50;;;;;;5020885;28;20530;-82
2022/07/10 11:29:02;;;;;;;2.37;1.77;;;20.30;91.00;;;;;;5011975;28;20455;-81
2022/07/10 11:31:31;;;;;;;1.50;1.40;;;20.10;91.50;;;;;;5033338;28;20475;-82
2022/07/10 11:33:58;;;;;;;4.00;2.93;;;20.00;91.70;;;;;;5021203;28;20544;-82
2022/07/10 11:36:27;;;;;;;2.03;1.57;;;20.00;91.90;;;;;;5022082;28;20450;-82
2022/07/10 11:39:01;;;;;;;1.67;1.40;;;19.90;92.00;;;;;;5026848;28;20993;-82
2022/07/10 11:41:28;;;;;;;3.23;1.20;;;19.80;92.20;;;;;;5017845;28;20453;-82
2022/07/10 11:43:58;;;;;;;1.63;1.20;;;19.70;92.20;;;;;;5019981;28;20446;-82
2022/07/10 11:46:27;;;;;;;1.27;1.13;;;19.50;92.50;;;;;;5019673;28;20463;-81
2022/07/10 11:48:58;;;;;;;2.40;1.30;;;19.50;92.90;;;;;;5021871;28;20442;-82
2022/07/10 11:51:39;;;;;;;2.97;1.37;;;19.50;93.10;;;;;;5028994;28;20488;-82
2022/07/10 11:54:12;;;;;;;3.13;1.30;;;19.80;93.30;;;;;;5020138;28;20995;-82
2022/07/10 11:56:41;;;;;;;1.37;1.27;;;19.60;93.20;;;;;;5018015;28;20451;-82
2022/07/10 11:59:10;;;;;;;1.80;1.47;;;19.60;93.60;;;;;;5025098;28;20453;-82
2022/07/10 12:01:45;;;;;;;2.00;1.50;;;19.50;93.70;;;;;;5022311;28;20549;-83
2022/07/10 12:04:14;;;;;;;2.60;1.33;;;19.60;93.90;;;;;;5008354;28;20455;-82
2022/07/10 12:06:44;;;;;;;2.93;1.70;;;19.50;94.00;;;;;;5012941;28;21051;-82
2022/07/10 12:09:16;;;;;;;2.83;1.77;;;19.60;94.40;;;;;;5041578;28;20529;-82
2022/07/10 12:11:44;;;;;;;1.50;1.40;;;19.80;95.10;;;;;;5032634;28;20450;-82
2022/07/10 12:14:22;;;;;;;2.90;1.90;;;19.70;94.80;;;;;;5038730;28;20492;-82
2022/07/10 12:16:51;;;;;;;3.20;1.80;;;19.60;94.60;;;;;;5045721;28;20598;-84
2022/07/10 12:19:38;;;;;;;1.60;1.50;;;19.50;94.70;;;;;;5025981;28;20472;-84
2022/07/10 12:22:08;;;;;;;1.40;1.30;;;19.60;94.10;;;;;;5019518;28;20459;-81
2022/07/10 12:24:35;;;;;;;2.40;2.13;;;19.70;94.10;;;;;;5018643;28;20438;-82
2022/07/10 12:27:02;;;;;;;5.53;3.20;;;19.60;94.20;;;;;;5024291;28;20553;-83
2022/07/10 12:29:29;;;;;;;1.40;1.30;;;19.60;94.40;;;;;;5026974;28;20443;-83
2022/07/10 12:31:59;;;;;;;5.30;1.83;;;19.50;94.50;;;;;;5015575;28;20469;-79
2022/07/10 12:34:34;;;;;;;2.80;1.80;;;19.50;94.70;;;;;;5016939;28;20470;-82
2022/07/10 12:37:11;;;;;;;1.67;1.40;;;19.50;94.70;;;;;;5022164;28;20476;-83
2022/07/10 12:39:54;;;;;;;1.90;1.53;;;19.60;94.60;;;;;;5017856;28;20526;-84
2022/07/10 12:42:30;;;;;;;2.90;1.70;;;19.60;94.40;;;;;;5030328;28;20506;-81
2022/07/10 12:45:10;;;;;;;1.67;1.57;;;19.60;94.50;;;;;;5027678;28;20433;-83
2022/07/10 12:47:48;;;;;;;1.57;1.13;;;19.70;94.40;;;;;;5016360;28;20472;-82
2022/07/10 12:50:17;;;;;;;2.00;1.20;;;19.80;94.00;;;;;;5021696;28;20443;-83
2022/07/10 12:52:46;;;;;;;1.73;1.50;;;19.60;93.90;;;;;;5025808;28;20453;-81
2022/07/10 12:55:14;;;;;;;1.50;1.40;;;19.90;94.20;;;;;;5027227;28;20486;-83
2022/07/10 12:58:00;;;;;;;1.73;1.63;;;20.20;93.50;;;;;;5020330;28;20494;-82
2022/07/10 13:00:30;;;;;;;3.13;1.50;;;20.50;93.00;;;;;;5015888;28;20485;-82
2022/07/10 13:03:03;;;;;;;1.93;1.63;;;20.30;93.20;;;;;;5003288;28;20451;-82